createdAt,value
2018-02-22T00:01:41.853Z,28.07
2018-02-22T00:04:09.313Z,29.33
2018-02-22T00:06:36.769Z,29.00
2018-02-22T00:09:04.996Z,29.70
2018-02-22T00:11:33.210Z,28.47
2018-02-22T00:14:00.668Z,27.53
2018-02-22T00:16:28.131Z,29.63
2018-02-22T00:18:55.600Z,28.60
2018-02-22T00:21:23.063Z,27.97
2018-02-22T00:23:50.526Z,30.23
2018-02-22T00:26:17.985Z,28.53
2018-02-22T00:28:45.606Z,28.27
2018-02-22T00:31:13.066Z,28.87
2018-02-22T00:33:40.533Z,28.87
2018-02-22T00:36:07.997Z,28.87
2018-02-22T00:38:35.454Z,28.07
2018-02-22T00:41:02.920Z,29.63
2018-02-22T00:43:30.373Z,29.03
2018-02-22T00:45:57.830Z,28.70
2018-02-22T00:48:25.281Z,29.33
2018-02-22T00:50:52.753Z,27.73
2018-02-22T00:53:20.200Z,29.33
2018-02-22T00:55:47.693Z,27.67
2018-02-22T00:58:15.197Z,29.67
2018-02-22T01:00:42.660Z,28.73
2018-02-22T01:03:10.109Z,29.20
2018-02-22T01:05:38.342Z,29.23
2018-02-22T01:08:05.796Z,28.37
2018-02-22T01:10:33.259Z,28.53
2018-02-22T01:13:01.859Z,28.37
2018-02-22T01:15:29.334Z,29.07
2018-02-22T01:17:56.794Z,28.00
2018-02-22T01:20:24.257Z,28.97
2018-02-22T01:22:51.710Z,29.23
2018-02-22T01:25:19.176Z,29.60
2018-02-22T01:27:46.635Z,29.23
2018-02-22T01:30:14.146Z,29.67
2018-02-22T01:32:41.636Z,27.97
2018-02-22T01:35:10.217Z,27.07
2018-02-22T01:37:37.677Z,28.67
2018-02-22T01:40:05.133Z,29.40
2018-02-22T01:42:32.589Z,29.27
2018-02-22T01:45:00.077Z,28.03
2018-02-22T01:47:27.533Z,27.77
2018-02-22T01:49:54.990Z,28.73
2018-02-22T01:52:22.445Z,27.67
2018-02-22T01:54:49.908Z,28.67
2018-02-22T01:57:17.383Z,28.87
2018-02-22T01:59:44.865Z,28.30
2018-02-22T02:02:12.312Z,28.70
2018-02-22T02:04:39.785Z,29.57
2018-02-22T02:07:07.244Z,29.23
2018-02-22T02:09:34.705Z,27.80
2018-02-22T02:12:02.942Z,29.73
2018-02-22T02:14:31.166Z,29.00
2018-02-22T02:16:58.628Z,26.67
2018-02-22T02:19:26.091Z,27.43
2018-02-22T02:21:53.628Z,29.57
2018-02-22T02:24:21.098Z,29.13
2018-02-22T02:26:48.558Z,29.20
2018-02-22T02:29:16.021Z,28.53
2018-02-22T02:31:43.489Z,28.27
2018-02-22T02:34:10.941Z,29.47
2018-02-22T02:36:43.534Z,29.97
2018-02-22T02:39:10.992Z,29.33
2018-02-22T02:41:38.470Z,29.57
2018-02-22T02:44:05.921Z,30.50
2018-02-22T02:46:33.390Z,28.87
2018-02-22T02:49:00.857Z,29.23
2018-02-22T02:51:28.337Z,28.90
2018-02-22T02:53:55.785Z,28.70
2018-02-22T02:56:23.253Z,29.43
2018-02-22T02:58:50.705Z,29.03
2018-02-22T03:01:18.168Z,29.87
2018-02-22T03:03:45.628Z,27.80
2018-02-22T03:06:13.097Z,28.63
2018-02-22T03:08:40.552Z,28.03
2018-02-22T03:11:08.016Z,29.40
2018-02-22T03:13:35.485Z,29.67
2018-02-22T03:16:02.945Z,27.93
2018-02-22T03:18:30.404Z,27.70
2018-02-22T03:20:57.869Z,28.97
2018-02-22T03:23:25.324Z,28.30
2018-02-22T03:25:52.782Z,26.97
2018-02-22T03:28:20.238Z,28.60
2018-02-22T03:30:48.478Z,28.20
2018-02-22T03:33:15.925Z,27.83
2018-02-22T03:35:44.148Z,28.47
2018-02-22T03:38:11.633Z,27.43
2018-02-22T03:40:39.092Z,27.97
2018-02-22T03:43:06.548Z,26.63
2018-02-22T03:45:34.007Z,26.93
2018-02-22T03:48:01.468Z,27.10
2018-02-22T03:50:28.929Z,27.17
2018-02-22T03:52:56.402Z,27.63
2018-02-22T03:55:23.853Z,28.23
2018-02-22T03:57:51.317Z,27.97
2018-02-22T04:00:18.764Z,27.30
2018-02-22T04:02:46.230Z,25.97
2018-02-22T04:05:13.696Z,28.00
2018-02-22T04:07:41.160Z,26.13
2018-02-22T04:10:08.616Z,26.93
2018-02-22T04:12:36.861Z,26.73
2018-02-22T04:15:05.085Z,27.23
2018-02-22T04:17:32.549Z,27.10
2018-02-22T04:20:00.009Z,26.50
2018-02-22T04:22:27.474Z,27.30
2018-02-22T04:24:54.931Z,25.67
2018-02-22T04:27:22.397Z,25.03
2018-02-22T04:29:49.851Z,27.07
2018-02-22T04:32:17.321Z,27.07
2018-02-22T04:34:44.782Z,26.90
2018-02-22T04:37:12.242Z,27.33
2018-02-22T04:39:39.687Z,26.53
2018-02-22T04:42:07.148Z,27.23
2018-02-22T04:44:34.940Z,27.80
2018-02-22T04:47:03.224Z,26.63
2018-02-22T04:49:30.676Z,25.43
2018-02-22T04:51:58.152Z,25.10
2018-02-22T04:54:25.611Z,26.03
2018-02-22T04:56:53.069Z,27.17
2018-02-22T04:59:20.525Z,26.20
2018-02-22T05:01:47.997Z,25.37
2018-02-22T05:04:15.461Z,26.50
2018-02-22T05:06:43.004Z,26.77
2018-02-22T05:09:10.464Z,25.43
2018-02-22T05:11:37.924Z,25.90
2018-02-22T05:14:05.412Z,26.00
2018-02-22T05:16:32.861Z,24.93
2018-02-22T05:19:00.329Z,25.67
2018-02-22T05:21:27.803Z,24.77
2018-02-22T05:23:55.261Z,24.63
2018-02-22T05:26:22.720Z,24.43
2018-02-22T05:28:50.180Z,24.43
2018-02-22T05:31:17.641Z,25.07
2018-02-22T05:33:45.184Z,24.83
2018-02-22T05:36:12.621Z,24.57
2018-02-22T05:38:40.849Z,24.30
2018-02-22T05:41:08.318Z,25.90
2018-02-22T05:43:35.787Z,23.60
2018-02-22T05:46:03.241Z,23.33
2018-02-22T05:48:30.701Z,23.30
2018-02-22T05:50:58.166Z,24.97
2018-02-22T05:53:25.628Z,23.70
2018-02-22T05:55:53.093Z,26.17
2018-02-22T05:58:20.563Z,23.80
2018-02-22T06:00:48.012Z,23.20
2018-02-22T06:03:16.246Z,24.40
2018-02-22T06:05:44.473Z,24.03
2018-02-22T06:08:11.942Z,24.43
2018-02-22T06:10:39.384Z,23.73
2018-02-22T06:13:06.874Z,22.57
2018-02-22T06:15:34.366Z,23.57
2018-02-22T06:18:02.597Z,23.77
2018-02-22T06:20:30.062Z,24.33
2018-02-22T06:22:57.537Z,23.73
2018-02-22T06:25:24.991Z,23.53
2018-02-22T06:27:52.450Z,23.47
2018-02-22T06:30:19.909Z,23.43
2018-02-22T06:32:47.452Z,23.70
2018-02-22T06:35:14.909Z,23.77
2018-02-22T06:37:42.366Z,22.07
2018-02-22T06:40:09.821Z,22.23
2018-02-22T06:42:38.054Z,22.00
2018-02-22T06:45:05.519Z,22.60
2018-02-22T06:47:32.980Z,23.57
2018-02-22T06:50:00.446Z,22.83
2018-02-22T06:52:27.934Z,21.60
2018-02-22T06:54:55.370Z,21.90
2018-02-22T06:57:23.597Z,20.93
2018-02-22T06:59:51.068Z,22.50
2018-02-22T07:02:18.517Z,22.07
2018-02-22T07:04:46.744Z,21.27
2018-02-22T07:07:14.197Z,23.30
2018-02-22T07:09:41.663Z,23.33
2018-02-22T07:12:09.129Z,25.20
2018-02-22T07:14:36.596Z,24.17
2018-02-22T07:17:04.066Z,25.77
2018-02-22T07:19:31.785Z,29.07
2018-02-22T07:21:59.237Z,28.20
2018-02-22T07:24:27.466Z,25.87
2018-02-22T07:26:54.936Z,22.93
2018-02-22T07:29:22.389Z,21.40
2018-02-22T07:31:49.840Z,22.43
2018-02-22T07:34:17.307Z,22.40
2018-02-22T07:36:44.765Z,22.03
2018-02-22T07:39:12.241Z,21.53
2018-02-22T07:41:39.694Z,21.20
2018-02-22T07:44:07.174Z,22.27
2018-02-22T07:46:34.629Z,21.23
2018-02-22T07:49:02.090Z,21.20
2018-02-22T07:51:29.543Z,21.33
2018-02-22T07:53:57.011Z,20.90
2018-02-22T07:56:24.466Z,21.90
2018-02-22T07:58:51.937Z,21.60
2018-02-22T08:01:19.391Z,22.43
2018-02-22T08:03:46.858Z,21.23
2018-02-22T08:06:14.311Z,20.97
2018-02-22T08:08:41.775Z,23.37
2018-02-22T08:11:09.239Z,21.10
2018-02-22T08:13:36.709Z,22.00
2018-02-22T08:16:04.170Z,21.77
2018-02-22T08:18:31.625Z,22.60
2018-02-22T08:20:59.089Z,21.87
2018-02-22T08:23:26.537Z,21.37
2018-02-22T08:25:54.000Z,22.70
2018-02-22T08:28:21.460Z,22.73
2018-02-22T08:30:48.926Z,22.67
2018-02-22T08:33:16.413Z,22.60
2018-02-22T08:35:43.874Z,23.23
2018-02-22T08:38:11.325Z,21.83
2018-02-22T08:40:38.802Z,22.87
2018-02-22T08:43:06.261Z,21.80
2018-02-22T08:45:33.722Z,23.30
2018-02-22T08:48:01.188Z,22.07
2018-02-22T08:50:29.436Z,23.30
2018-02-22T08:52:56.886Z,23.27
2018-02-22T08:55:25.125Z,23.27
2018-02-22T08:57:52.577Z,23.23
2018-02-22T09:00:20.039Z,23.47
2018-02-22T09:02:47.493Z,23.70
2018-02-22T09:05:15.026Z,23.73
2018-02-22T09:07:42.476Z,24.33
2018-02-22T09:10:10.713Z,23.30
2018-02-22T09:12:38.185Z,23.93
2018-02-22T09:15:05.679Z,23.97
2018-02-22T09:17:33.899Z,23.50
2018-02-22T09:20:01.367Z,24.77
2018-02-22T09:22:28.824Z,23.43
2018-02-22T09:24:56.296Z,25.67
2018-02-22T09:27:23.757Z,23.83
2018-02-22T09:29:51.224Z,24.63
2018-02-22T09:32:18.682Z,25.13
2018-02-22T09:34:46.144Z,25.00
2018-02-22T09:37:13.611Z,24.27
2018-02-22T09:39:41.081Z,24.77
2018-02-22T09:42:08.548Z,23.27
2018-02-22T09:44:36.017Z,24.20
2018-02-22T09:47:03.469Z,24.93
2018-02-22T09:49:30.945Z,24.97
2018-02-22T09:51:58.397Z,25.20
2018-02-22T09:54:25.866Z,26.10
2018-02-22T09:56:53.328Z,24.47
2018-02-22T09:59:20.779Z,25.23
2018-02-22T10:01:48.253Z,25.77
2018-02-22T10:04:15.715Z,26.37
2018-02-22T10:06:43.176Z,24.63
2018-02-22T10:09:10.658Z,24.87
2018-02-22T10:11:38.895Z,24.47
2018-02-22T10:14:06.340Z,26.47
2018-02-22T10:16:33.811Z,25.47
2018-02-22T10:19:01.316Z,26.00
2018-02-22T10:21:28.725Z,25.30
2018-02-22T10:23:56.180Z,24.50
2018-02-22T10:26:23.653Z,24.73
2018-02-22T10:28:51.109Z,24.53
2018-02-22T10:31:18.574Z,25.03
2018-02-22T10:33:46.020Z,25.50
2018-02-22T10:36:13.500Z,25.53
2018-02-22T10:38:40.936Z,24.97
2018-02-22T10:41:09.165Z,26.07
2018-02-22T10:43:36.621Z,24.33
2018-02-22T10:46:04.103Z,23.20
2018-02-22T10:48:31.554Z,24.13
2018-02-22T10:50:59.015Z,23.90
2018-02-22T10:53:26.465Z,23.87
2018-02-22T10:55:53.921Z,24.50
2018-02-22T10:58:21.378Z,24.03
2018-02-22T11:00:54.649Z,24.90
2018-02-22T11:03:22.861Z,24.37
2018-02-22T11:05:50.335Z,23.37
2018-02-22T11:08:17.780Z,23.63
2018-02-22T11:10:45.251Z,28.07
2018-02-22T11:13:12.704Z,24.80
2018-02-22T11:15:40.162Z,22.53
2018-02-22T11:18:07.613Z,22.70
2018-02-22T11:20:35.070Z,23.60
2018-02-22T11:23:02.525Z,22.57
2018-02-22T11:25:30.762Z,23.27
2018-02-22T11:27:58.979Z,21.87
2018-02-22T11:30:27.210Z,22.77
2018-02-22T11:32:54.668Z,23.20
2018-02-22T11:35:22.120Z,22.07
2018-02-22T11:37:49.590Z,23.37
2018-02-22T11:40:17.048Z,22.57
2018-02-22T11:42:44.518Z,24.07
2018-02-22T11:45:11.968Z,23.50
2018-02-22T11:47:39.422Z,22.50
2018-02-22T11:50:06.864Z,24.37
2018-02-22T11:52:35.093Z,22.73
2018-02-22T11:55:02.549Z,22.50
2018-02-22T11:57:30.009Z,22.73
2018-02-22T11:59:57.471Z,21.43
2018-02-22T12:02:24.920Z,22.20
2018-02-22T12:04:52.385Z,20.37
2018-02-22T12:07:19.841Z,19.17
2018-02-22T12:09:47.296Z,19.67
2018-02-22T12:12:14.767Z,20.10
2018-02-22T12:14:42.226Z,20.00
2018-02-22T12:17:09.685Z,18.10
2018-02-22T12:19:37.132Z,19.37
2018-02-22T12:22:04.589Z,19.00
2018-02-22T12:24:32.816Z,19.13
2018-02-22T12:27:00.300Z,20.03
2018-02-22T12:29:27.758Z,19.30
2018-02-22T12:31:55.218Z,18.67
2018-02-22T12:34:22.669Z,18.23
2018-02-22T12:36:50.945Z,17.20
2018-02-22T12:39:18.398Z,17.77
2018-02-22T12:41:45.865Z,18.53
2018-02-22T12:44:13.316Z,17.43
2018-02-22T12:46:40.772Z,17.27
2018-02-22T12:49:08.228Z,16.67
2018-02-22T12:51:35.685Z,16.67
2018-02-22T12:54:03.141Z,17.23
2018-02-22T12:56:31.363Z,17.10
2018-02-22T12:58:58.832Z,17.00
2018-02-22T13:01:26.285Z,16.93
2018-02-22T13:03:53.740Z,17.73
2018-02-22T13:06:21.198Z,17.07
2018-02-22T13:08:48.652Z,16.53
2018-02-22T13:11:16.111Z,15.67
2018-02-22T13:13:43.582Z,16.13
2018-02-22T13:16:11.033Z,16.73
2018-02-22T13:18:38.498Z,16.17
2018-02-22T13:21:05.945Z,16.27
2018-02-22T13:23:33.409Z,16.47
2018-02-22T13:26:00.880Z,15.70
2018-02-22T13:28:28.335Z,16.20
2018-02-22T13:30:55.780Z,15.43
2018-02-22T13:33:35.941Z,15.73
2018-02-22T13:36:04.161Z,15.90
2018-02-22T13:38:43.554Z,15.20
2018-02-22T13:41:11.766Z,15.03
2018-02-22T13:43:39.244Z,15.73
2018-02-22T13:46:06.692Z,14.87
2018-02-22T13:51:33.713Z,16.27
2018-02-22T13:54:01.955Z,19.27
2018-02-22T13:56:41.229Z,18.10
2018-02-22T13:59:09.483Z,15.13
2018-02-22T14:01:48.817Z,14.43
2018-02-22T14:04:16.278Z,13.70
2018-02-22T14:06:43.832Z,14.63
2018-02-22T14:09:11.291Z,13.07
2018-02-22T14:11:38.747Z,13.70
2018-02-22T14:14:06.964Z,13.90
2018-02-22T14:16:35.180Z,13.43
2018-02-22T14:19:02.641Z,11.97
2018-02-22T14:21:30.093Z,12.40
2018-02-22T14:23:57.718Z,12.60
2018-02-22T14:26:25.021Z,11.63
2018-02-22T14:28:52.483Z,12.23
2018-02-22T14:31:19.930Z,11.83
2018-02-22T14:33:47.439Z,11.70
2018-02-22T14:36:15.609Z,12.37
2018-02-22T14:38:43.074Z,11.70
2018-02-22T14:41:10.534Z,11.20
2018-02-22T14:43:37.996Z,11.73
2018-02-22T14:46:05.457Z,11.57
2018-02-22T14:48:32.908Z,10.97
2018-02-22T14:51:00.367Z,10.93
2018-02-22T14:53:27.852Z,10.67
2018-02-22T14:55:55.311Z,10.07
2018-02-22T14:58:23.541Z,10.73
2018-02-22T15:00:57.442Z,11.00
2018-02-22T15:03:25.682Z,10.70
2018-02-22T15:05:53.132Z,10.77
2018-02-22T15:08:20.599Z,10.00
2018-02-22T15:10:48.042Z,8.90
2018-02-22T15:13:15.511Z,9.20
2018-02-22T15:15:42.965Z,9.60
2018-02-22T15:18:10.435Z,9.70
2018-02-22T15:20:37.888Z,8.67
2018-02-22T15:23:05.336Z,8.67
2018-02-22T15:25:32.791Z,9.03
2018-02-22T15:28:01.022Z,9.20
2018-02-22T15:30:28.477Z,9.47
2018-02-22T15:32:55.936Z,8.97
2018-02-22T15:35:23.391Z,9.20
2018-02-22T15:37:50.854Z,9.00
2018-02-22T15:40:18.313Z,8.73
2018-02-22T15:42:45.775Z,8.73
2018-02-22T15:45:13.232Z,8.60
2018-02-22T15:47:40.699Z,10.13
2018-02-22T15:50:08.174Z,9.40
2018-02-22T15:52:35.633Z,8.83
2018-02-22T15:55:03.153Z,8.20
2018-02-22T15:57:30.566Z,8.37
2018-02-22T15:59:58.036Z,8.60
2018-02-22T16:02:25.475Z,8.53
2018-02-22T16:04:52.963Z,7.80
2018-02-22T16:07:20.410Z,7.80
2018-02-22T16:09:47.879Z,8.47
2018-02-22T16:12:15.339Z,7.60
2018-02-22T16:14:42.790Z,7.93
2018-02-22T16:17:10.255Z,7.00
2018-02-22T16:19:37.702Z,7.37
2018-02-22T16:22:05.150Z,7.47
2018-02-22T16:24:32.613Z,6.93
2018-02-22T16:27:00.831Z,7.67
2018-02-22T16:29:28.295Z,7.33
2018-02-22T16:31:55.759Z,6.40
2018-02-22T16:34:23.296Z,7.23
2018-02-22T16:36:50.737Z,7.33
2018-02-22T16:39:18.969Z,6.87
2018-02-22T16:41:47.174Z,6.77
2018-02-22T16:44:14.637Z,9.93
2018-02-22T16:46:42.089Z,7.23
2018-02-22T16:49:09.564Z,7.87
2018-02-22T16:51:37.015Z,7.40
2018-02-22T16:54:04.492Z,6.60
2018-02-22T16:56:31.953Z,6.47
2018-02-22T16:58:59.403Z,5.93
2018-02-22T17:01:26.852Z,6.20
2018-02-22T17:03:54.319Z,5.43
2018-02-22T17:06:21.765Z,6.20
2018-02-22T17:08:49.229Z,6.27
2018-02-22T17:11:16.677Z,5.67
2018-02-22T17:13:44.137Z,5.97
2018-02-22T17:16:11.586Z,6.20
2018-02-22T17:18:39.033Z,6.07
2018-02-22T17:21:07.258Z,6.60
2018-02-22T17:23:34.726Z,6.43
2018-02-22T17:26:07.965Z,5.27
2018-02-22T17:28:41.950Z,6.27
2018-02-22T17:31:15.169Z,7.67
2018-02-22T17:33:43.400Z,8.47
2018-02-22T17:36:11.759Z,7.57
2018-02-22T17:38:52.040Z,7.57
2018-02-22T17:41:23.299Z,7.17
2018-02-22T17:43:50.762Z,7.80
2018-02-22T17:46:18.230Z,8.60
2018-02-22T17:48:45.693Z,8.27
2018-02-22T17:51:13.162Z,7.60
2018-02-22T17:53:40.614Z,8.70
2018-02-22T17:56:08.078Z,7.43
2018-02-22T17:58:35.528Z,7.77
2018-02-22T18:01:02.984Z,7.37
2018-02-22T18:03:30.437Z,7.20
2018-02-22T18:05:57.900Z,6.93
2018-02-22T18:08:25.350Z,6.57
2018-02-22T18:10:52.804Z,7.20
2018-02-22T18:13:20.265Z,7.90
2018-02-22T18:15:47.718Z,7.03
2018-02-22T18:18:15.169Z,8.27
2018-02-22T18:20:43.394Z,7.90
2018-02-22T18:23:10.852Z,8.83
2018-02-22T18:25:38.324Z,8.77
2018-02-22T18:28:05.782Z,9.60
2018-02-22T18:30:33.254Z,9.43
2018-02-22T18:33:00.697Z,8.90
2018-02-22T18:35:28.175Z,7.50
2018-02-22T18:37:59.649Z,7.97
2018-02-22T18:40:32.690Z,7.80
2018-02-22T18:43:00.133Z,7.50
2018-02-22T18:45:28.414Z,7.77
2018-02-22T18:47:55.811Z,7.90
2018-02-22T18:50:23.266Z,7.33
2018-02-22T18:52:50.722Z,8.03
2018-02-22T18:55:18.186Z,8.50
2018-02-22T18:57:45.642Z,8.80
2018-02-22T19:00:13.110Z,8.30
2018-02-22T19:02:40.565Z,8.93
2018-02-22T19:05:08.032Z,8.67
2018-02-22T19:07:35.485Z,9.20
2018-02-22T19:10:02.942Z,8.40
2018-02-22T19:12:31.159Z,9.00
2018-02-22T19:14:58.628Z,8.17
2018-02-22T19:17:26.076Z,9.17
2018-02-22T19:19:53.525Z,8.40
2018-02-22T19:22:20.988Z,8.50
2018-02-22T19:24:48.450Z,8.57
2018-02-22T19:27:15.906Z,7.83
2018-02-22T19:29:43.372Z,9.03
2018-02-22T19:32:10.857Z,9.43
2018-02-22T19:34:38.294Z,8.60
2018-02-22T19:37:05.764Z,8.73
2018-02-22T19:39:33.216Z,8.43
2018-02-22T19:42:00.690Z,8.80
2018-02-22T19:44:28.130Z,9.40
2018-02-22T19:46:55.604Z,9.00
2018-02-22T19:49:23.053Z,8.67
2018-02-22T19:51:50.513Z,8.70
2018-02-22T19:54:18.742Z,9.17
2018-02-22T19:56:46.212Z,9.40
2018-02-22T19:59:13.696Z,9.07
2018-02-22T20:01:41.153Z,9.77
2018-02-22T20:04:08.629Z,10.03
2018-02-22T20:06:36.089Z,9.93
2018-02-22T20:09:04.305Z,8.97
2018-02-22T20:11:31.792Z,9.70
2018-02-22T20:13:59.223Z,8.90
2018-02-22T20:16:26.690Z,9.73
2018-02-22T20:18:54.148Z,9.80
2018-02-22T20:21:21.613Z,9.80
2018-02-22T20:23:49.064Z,10.30
2018-02-22T20:26:16.536Z,10.13
2018-02-22T20:28:43.994Z,9.47
2018-02-22T20:31:11.453Z,9.83
2018-02-22T20:33:38.937Z,10.70
2018-02-22T20:36:06.398Z,11.10
2018-02-22T20:38:33.857Z,11.37
2018-02-22T20:41:01.316Z,11.30
2018-02-22T20:43:28.787Z,10.03
2018-02-22T20:45:56.246Z,10.27
2018-02-22T20:48:23.729Z,10.93
2018-02-22T20:50:51.188Z,10.23
2018-02-22T20:53:24.255Z,10.87
2018-02-22T20:55:51.721Z,10.90
2018-02-22T20:58:19.193Z,11.30
2018-02-22T21:00:46.650Z,10.00
2018-02-22T21:03:16.025Z,11.30
2018-02-22T21:05:44.247Z,11.30
2018-02-22T21:08:11.710Z,10.67
2018-02-22T21:10:39.164Z,11.03
2018-02-22T21:13:06.637Z,10.73
2018-02-22T21:15:34.084Z,10.17
2018-02-22T21:18:01.558Z,10.70
2018-02-22T21:20:29.008Z,10.87
2018-02-22T21:22:56.486Z,10.13
2018-02-22T21:25:23.948Z,11.43
2018-02-22T21:27:51.423Z,10.70
2018-02-22T21:30:18.877Z,10.80
2018-02-22T21:32:46.347Z,10.83
2018-02-22T21:35:13.815Z,10.93
2018-02-22T21:37:41.289Z,10.83
2018-02-22T21:40:08.751Z,10.90
2018-02-22T21:42:36.212Z,11.30
2018-02-22T21:45:03.680Z,11.67
2018-02-22T21:47:31.191Z,12.13
2018-02-22T21:49:58.640Z,10.67
2018-02-22T21:52:26.865Z,11.53
2018-02-22T21:54:54.322Z,11.20
2018-02-22T21:57:21.791Z,11.10
2018-02-22T21:59:49.255Z,11.40
2018-02-22T22:02:16.716Z,11.40
2018-02-22T22:04:44.179Z,10.73
2018-02-22T22:07:11.634Z,11.83
2018-02-22T22:09:39.095Z,11.47
2018-02-22T22:12:06.557Z,11.87
2018-02-22T22:14:34.023Z,10.67
2018-02-22T22:17:01.486Z,11.00
2018-02-22T22:19:28.934Z,11.27
2018-02-22T22:21:56.409Z,12.03
2018-02-22T22:24:23.863Z,12.23
2018-02-22T22:26:51.326Z,10.93
2018-02-22T22:29:18.793Z,11.20
2018-02-22T22:31:46.265Z,11.10
2018-02-22T22:34:13.725Z,11.33
2018-02-22T22:36:41.184Z,11.40
2018-02-22T22:39:08.643Z,11.20
2018-02-22T22:41:36.114Z,11.90
2018-02-22T22:44:03.614Z,11.67
2018-02-22T22:46:31.051Z,11.00
2018-02-22T22:48:58.525Z,10.63
2018-02-22T22:51:25.973Z,11.90
2018-02-22T22:53:53.429Z,11.57
2018-02-22T22:56:20.890Z,11.87
2018-02-22T22:58:48.359Z,11.77
2018-02-22T23:01:15.813Z,11.77
2018-02-22T23:03:43.292Z,11.33
2018-02-22T23:06:10.740Z,11.00
2018-02-22T23:08:38.211Z,11.80
2018-02-22T23:11:05.655Z,11.30
2018-02-22T23:13:33.124Z,11.17
2018-02-22T23:16:00.585Z,10.83
2018-02-22T23:18:28.044Z,11.70
2018-02-22T23:20:55.512Z,10.57
2018-02-22T23:23:22.983Z,11.43
2018-02-22T23:25:50.452Z,11.33
2018-02-22T23:28:17.916Z,10.50
2018-02-22T23:30:45.377Z,11.00
2018-02-22T23:33:12.848Z,10.77
2018-02-22T23:35:40.298Z,10.87
2018-02-22T23:38:07.757Z,10.97
2018-02-22T23:40:41.019Z,11.50
2018-02-22T23:43:09.244Z,11.33
2018-02-22T23:45:36.693Z,10.93
2018-02-22T23:48:04.172Z,11.07
2018-02-22T23:50:31.615Z,10.60
2018-02-22T23:52:59.096Z,10.30
2018-02-22T23:55:26.551Z,10.73
2018-02-22T23:57:54.016Z,10.70
